Terminal Aerodrome Forecast
Issued by NWS

Home | Current Version | Previous Version | Text Only | Print | Product List | Glossary On
Versions: 1 2 3 4 5 6 7 8 9 10 11 12 13 14 15 16 17
000
FTUS45 KGJT 242346
TAFRIL
TAF
KRIL 242346Z 2500/2524 20005KT P6SM VCTS BKN130CB
     FM250500 15005KT P6SM SCT140
     FM251200 VRB03KT P6SM SCT140
     FM251800 32004KT P6SM BKN150
     FM252100 27010KT P6SM VCTS BKN150CB=

USA.gov is the U.S. government's official web portal to all federal, state and local government web resources and services.